Accueil
METAR-TAF:

METAR-TAF

Aéroports :

Aéroport international Sir-Seewoosagur-Ramgoolam

Maurice, Maurice

latitude: 20-26S, longitude: 057-40E, altitude: 55 m

Observation

Le bulletin a été fait il y a 1 heure et 9 minutes, à 18:00 UTC
Vent 16 kt de est
Température 22°C
Humidité 53%
Pression 1024 hPa
Visibilité 10 km ou plus
Nuages fragmentés à une hauteur de 1600 ft
Nuages épars à une hauteur de 5000 ft
averses à proximité

METAR: FIMP 101800Z 09016KT 9999 VCSH BKN016 SCT050 22/12 Q1024

Heure: 23:09 (19:09 UTC)

Prévision

Le bulletin a été fait il y a 1 heure et 39 minutes, à 17:30 UTC
Prévision valable du 10 à 18 UTC au 12 à 00 UTC
Vent 15 kt de est/sud-est avec des rafales jusqu'à 30 kt
Temporairement
du 10 à 18 UTC au 10 à 22 UTC
Visibilité: 5000 m
Nuages fragmentés à une hauteur de 1600 ft
faibles averses de pluie

TAF: FIMP 101730Z 1018/1200 11015G30KT 999 9SCT017 TEMPO 1018/1022 5000 -SHRA BKN016

Observations et prévisions météorologiques de plus de 4000 aéroports (messages METAR et TAF).

Les stations disponibles sont représentées par des disques jaunes et rouges sur la carte.

Passer la souris dessus pour voir le nom de la station.

Cliquer dessus pour voir les observations et prévisions météorologiques.

Pour changer de carte: cliquez sur les boutons verts avec une croix noire pour zoomer, sur le bouton vert avec un tiret pour effectuer un zoom arrière, ou sur les flèches vertes pour les cartes adjacentes.


METAR-TAF: